STAZIONE METEO DI BARCELLONA P.G. CENTRO
Dati campionati ogni minuto da Consolle Davis Vantage Pro 2
ed inviati alla rete mediante server Anemos WDS5 wview



Barcellona P.G. Centro more information Barcellona P.G. Centro


Golfo di Patti more information Golfo di Patti


Thunder radar more information blitzortung!


Rain radar  rain snow radar


altri nostri siti meteo:

Rischio IncendiRischio Incendi

Rete NOAA MADIS

Italia Meteo Network

PomeziameteoSito web di stazione meteo amica



Non è richiesta alcuna attenzione speciale.    Non sono presenti avvisi meteorologici di particolare rilevanza

Report METAR

   
LICF - Messina, Italy
Distanza dalla stazione: NE 30 km
Dati ricevuti: 11-07-2020 12:55
Poche nuvole  
Poche nuvole  
   Vento: Nord 13 km/h<br />Gust to 13 km/h
Vento: Nord 13 km/h
Gust to 13 km/h
Temperatura: 29°C
Indice di Calore: 32°C
P.to Rugiada: 22°C
Umidità: 66%
Barometro: 1015 hPa
Nuvole: Poche nuvole
Visibilità: oltre 10 km
dettagli cloud: Poche nuvole 762 m
LICF 111055Z 01007G17KT 9999 FEW025 29/22 Q1015 RMK FEW QUK 3 QUL 1 NE VIS MAR 16 KM MON CLD SCT NC VIS MIN 9999
LICR - Reggio Calabria, Italy
Distanza dalla stazione: SE 39 km
Dati ricevuti: 11-07-2020 12:50
Sereno  
Sereno  
   Vento: Nord 27.8 km/h
Vento: Nord 27.8 km/h
Temperatura: 30°C
Indice di Calore: 31°C
P.to Rugiada: 19°C
Umidità: 52%
Barometro: 1014 hPa
Visibilità: oltre 10 km
dettagli cloud: Sereno
LICR 111050Z 36015KT CAVOK 30/19 Q1014
LICC - Catania/Fontanar, Italy
Distanza dalla stazione: S 77 km
Dati ricevuti: 11-07-2020 12:50
Sereno  
Sereno  
   Vento: Oriente 14.8 km/h
Vento: Oriente 14.8 km/h
Temperatura: 30°C
Indice di Calore: 31°C
P.to Rugiada: 19°C
Umidità: 52%
Barometro: 1015 hPa
Visibilità: oltre 10 km
dettagli cloud: Sereno
LICC 111050Z 09008KT 060V130 CAVOK 30/19 Q1015
LICZ - Sigonella (nas), Italy
Distanza dalla stazione: S 89 km
Dati ricevuti: 11-07-2020 12:55
Poche nuvole  
Poche nuvole  
   Vento: Oriente 18.5 km/h
Vento: Oriente 18.5 km/h
Temperatura: 32°C
P.to Rugiada: 11°C
Umidità: 27%
Barometro: 1016 hPa
Nuvole: Poche nuvole
Visibilità: oltre 10 km
dettagli cloud: Poche nuvole 1066.8 m
LICZ 111055Z 08010KT 9999 FEW035 32/11 Q1016 RMK FEW VIS MIN 9999 WIND THR28 08010KT WIND THR10 09010KT A3001 BLU
LICA - Lamezia Terme, Italy
Distanza dalla stazione: NE 122 km
Dati ricevuti: 11-07-2020 13:20
Sereno  
Sereno  
   Vento: W 22.2 km/h
Vento: W 22.2 km/h
Temperatura: 29°C
Indice di Calore: 32°C
P.to Rugiada: 22°C
Umidità: 66%
Barometro: 1015 hPa
Nuvole: Sereno
Visibilità: oltre 10 km
dettagli cloud: Sereno
LICA 111120Z AUTO 25012KT 9999 NCD 29/22 Q1015
LICB - Comiso, Italy
Distanza dalla stazione: S 138 km
Dati ricevuti: 11-07-2020 13:20
Sereno  
Sereno  
   Vento: W 16.7 km/h
Vento: W 16.7 km/h
Temperatura: 28°C
Indice di Calore: 29°C
P.to Rugiada: 18°C
Umidità: 55%
Barometro: 1016 hPa
Nuvole: Sereno
Visibilità: oltre 10 km
dettagli cloud: Sereno
LICB 111120Z AUTO 24009KT 210V280 9999 NCD 28/18 Q1016

Script sviluppato da  Saratoga-weather.org Adattato per il modello da  Weerstation Leuven

Potete trovare le nostre info meteo anche a:

European Weather Network

Weather Underground

AWEKAS

Citizen Weather Observer Program (CWOP)

HAMweather, WeatherForYou, PWS Weather

Attrezzature usate:

Stazione meteo
Davis VP2

Programma gestore dati meteo
WVIEW

Server per i dati meteo
WDS5 Ecoblack

Davis VP2

WVIEW

WDS5 Ecoblack